createdAt,value
2023-01-15T00:02:22.866Z,0.47
2023-01-15T00:04:52.145Z,0.55
2023-01-15T00:07:19.444Z,0.50
2023-01-15T00:09:46.715Z,0.50
2023-01-15T00:12:14.033Z,0.50
2023-01-15T00:14:41.303Z,0.50
2023-01-15T00:17:08.584Z,0.55
2023-01-15T00:19:35.899Z,0.50
2023-01-15T00:22:03.206Z,0.57
2023-01-15T00:24:49.046Z,0.40
2023-01-15T00:27:34.976Z,0.43
2023-01-15T00:30:02.277Z,0.40
2023-01-15T00:32:30.596Z,0.30
2023-01-15T00:35:00.699Z,0.30
2023-01-15T00:37:28.413Z,0.30
2023-01-15T00:39:55.666Z,0.40
2023-01-15T00:42:22.935Z,0.40
2023-01-15T00:44:50.370Z,0.63
2023-01-15T00:47:17.776Z,0.25
2023-01-15T00:49:45.401Z,0.30
2023-01-15T00:52:13.066Z,0.60
2023-01-15T00:54:40.368Z,0.30
2023-01-15T00:57:07.944Z,0.40
2023-01-15T00:59:35.399Z,0.40
2023-01-15T01:02:02.891Z,0.40
2023-01-15T01:04:29.818Z,0.40
2023-01-15T01:06:57.086Z,0.52
2023-01-15T01:09:24.559Z,0.45
2023-01-15T01:11:51.835Z,0.65
2023-01-15T01:14:19.109Z,0.60
2023-01-15T01:16:46.375Z,0.82
2023-01-15T01:19:21.080Z,0.57
2023-01-15T01:21:49.455Z,0.55
2023-01-15T01:24:20.211Z,0.60
2023-01-15T01:26:48.006Z,0.40
2023-01-15T01:29:17.429Z,0.60
2023-01-15T01:31:44.867Z,0.40
2023-01-15T01:34:12.758Z,0.50
2023-01-15T01:36:41.749Z,0.35
2023-01-15T01:39:13.634Z,0.50
2023-01-15T01:41:42.567Z,0.60
2023-01-15T01:44:37.356Z,0.32
2023-01-15T01:47:10.069Z,0.43
2023-01-15T01:49:39.441Z,0.30
2023-01-15T01:52:10.909Z,0.32
2023-01-15T01:54:39.050Z,0.40
2023-01-15T01:57:07.317Z,0.55
2023-01-15T01:59:35.206Z,0.52
2023-01-15T02:02:03.769Z,0.50
2023-01-15T02:04:32.213Z,0.52
2023-01-15T02:07:01.574Z,0.52
2023-01-15T02:09:28.884Z,0.40
2023-01-15T02:12:02.836Z,0.52
2023-01-15T02:14:40.510Z,0.77
2023-01-15T02:17:25.466Z,0.55
2023-01-15T02:20:03.403Z,0.35
2023-01-15T02:23:02.643Z,0.45
2023-01-15T02:25:42.932Z,0.30
2023-01-15T02:28:30.162Z,0.35
2023-01-15T02:31:12.215Z,0.50
2023-01-15T02:33:45.595Z,0.35
2023-01-15T02:36:16.207Z,0.30
2023-01-15T02:38:48.333Z,0.30
2023-01-15T02:41:19.245Z,0.30
2023-01-15T02:43:51.304Z,0.40
2023-01-15T02:46:21.178Z,0.45
2023-01-15T02:48:53.164Z,0.43
2023-01-15T02:51:25.500Z,0.30
2023-01-15T02:53:57.294Z,0.50
2023-01-15T02:56:27.036Z,0.40
2023-01-15T02:58:59.607Z,0.20
2023-01-15T03:01:37.214Z,0.30
2023-01-15T03:04:33.272Z,0.30
2023-01-15T03:07:23.829Z,0.30
2023-01-15T03:09:52.148Z,0.40
2023-01-15T03:13:02.931Z,0.30
2023-01-15T03:16:20.794Z,0.20
2023-01-15T03:18:58.868Z,0.50
2023-01-15T03:21:39.952Z,0.50
2023-01-15T03:24:09.960Z,0.43
2023-01-15T03:26:39.053Z,0.28
2023-01-15T03:29:08.548Z,0.40
2023-01-15T03:31:36.694Z,0.20
2023-01-15T03:34:04.443Z,0.40
2023-01-15T03:36:32.007Z,0.50
2023-01-15T03:42:14.809Z,0.35
2023-01-15T03:44:57.206Z,0.30
2023-01-15T03:47:39.679Z,0.40
2023-01-15T03:50:28.065Z,0.40
2023-01-15T03:53:45.606Z,0.30
2023-01-15T03:56:30.115Z,0.30
2023-01-15T03:59:13.410Z,0.20
2023-01-15T04:01:58.519Z,0.40
2023-01-15T04:04:27.761Z,0.30
2023-01-15T04:06:56.391Z,0.30
2023-01-15T04:09:24.106Z,0.40
2023-01-15T04:11:54.798Z,0.30
2023-01-15T04:14:22.175Z,0.45
2023-01-15T04:16:54.008Z,0.43
2023-01-15T04:19:24.461Z,0.40
2023-01-15T04:21:59.679Z,0.30
2023-01-15T04:24:26.932Z,0.30
2023-01-15T04:26:54.211Z,0.30
2023-01-15T04:29:21.309Z,0.22
2023-01-15T04:31:48.754Z,0.30
2023-01-15T04:34:16.075Z,0.50
2023-01-15T04:36:46.607Z,0.30
2023-01-15T04:39:13.896Z,0.30
2023-01-15T04:41:59.622Z,0.40
2023-01-15T04:44:28.709Z,0.40
2023-01-15T04:46:57.473Z,0.40
2023-01-15T04:49:25.040Z,0.30
2023-01-15T04:51:52.301Z,0.20
2023-01-15T04:54:19.744Z,0.50
2023-01-15T04:56:51.007Z,0.43
2023-01-15T04:59:20.812Z,0.35
2023-01-15T05:02:02.552Z,0.40
2023-01-15T05:04:31.185Z,0.40
2023-01-15T05:06:58.529Z,0.30
2023-01-15T05:09:25.795Z,0.30
2023-01-15T05:11:53.132Z,0.40
2023-01-15T05:14:20.492Z,0.20
2023-01-15T05:16:47.760Z,0.38
2023-01-15T05:19:15.011Z,0.40
2023-01-15T05:21:43.849Z,0.30
2023-01-15T05:24:14.838Z,0.20
2023-01-15T05:26:42.150Z,0.40
2023-01-15T05:29:09.694Z,0.40
2023-01-15T05:31:36.908Z,0.40
2023-01-15T05:34:04.289Z,0.40
2023-01-15T05:36:32.408Z,0.20
2023-01-15T05:39:02.009Z,0.40
2023-01-15T05:41:48.606Z,0.32
2023-01-15T05:44:16.896Z,0.70
2023-01-15T05:46:44.964Z,0.28
2023-01-15T05:49:15.027Z,0.43
2023-01-15T05:51:42.665Z,0.30
2023-01-15T05:54:13.978Z,0.40
2023-01-15T05:56:41.325Z,0.20
2023-01-15T05:59:08.920Z,0.30
2023-01-15T06:01:36.436Z,0.40
2023-01-15T06:04:05.458Z,0.30
2023-01-15T06:06:33.132Z,0.22
2023-01-15T06:09:00.788Z,0.40
2023-01-15T06:11:28.378Z,0.38
2023-01-15T06:13:55.690Z,0.40
2023-01-15T06:16:23.409Z,0.30
2023-01-15T06:18:50.841Z,0.30
2023-01-15T06:21:18.640Z,0.35
2023-01-15T06:23:45.928Z,0.40
2023-01-15T06:26:18.024Z,0.40
2023-01-15T06:28:46.107Z,0.30
2023-01-15T06:31:16.604Z,0.40
2023-01-15T06:33:44.220Z,0.30
2023-01-15T06:36:16.571Z,0.35
2023-01-15T06:38:45.041Z,0.35
2023-01-15T06:41:42.205Z,0.40
2023-01-15T06:44:36.366Z,0.70
2023-01-15T06:47:22.137Z,0.40
2023-01-15T06:49:55.756Z,0.50
2023-01-15T06:52:24.352Z,0.25
2023-01-15T06:54:51.581Z,0.65
2023-01-15T06:57:19.188Z,0.30
2023-01-15T06:59:46.786Z,0.30
2023-01-15T07:02:14.184Z,0.50
2023-01-15T07:04:41.509Z,0.30
2023-01-15T07:07:08.753Z,0.30
2023-01-15T07:09:36.150Z,0.40
2023-01-15T07:12:03.442Z,0.52
2023-01-15T07:14:32.102Z,0.30
2023-01-15T07:16:59.442Z,0.20
2023-01-15T07:19:27.724Z,0.40
2023-01-15T07:21:55.225Z,0.40
2023-01-15T07:24:22.552Z,0.30
2023-01-15T07:26:49.867Z,0.57
2023-01-15T07:29:17.147Z,0.40
2023-01-15T07:31:44.519Z,0.30
2023-01-15T07:34:12.946Z,0.47
2023-01-15T07:36:40.290Z,0.50
2023-01-15T07:39:08.751Z,0.30
2023-01-15T07:41:54.894Z,0.30
2023-01-15T07:44:41.304Z,0.50
2023-01-15T07:47:44.028Z,0.40
2023-01-15T07:50:14.333Z,0.50
2023-01-15T07:55:10.220Z,0.60
2023-01-15T07:57:37.968Z,0.47
2023-01-15T08:00:12.807Z,0.50
2023-01-15T08:02:40.801Z,0.40
2023-01-15T08:05:08.429Z,0.70
2023-01-15T08:07:40.549Z,0.50
2023-01-15T08:10:09.602Z,0.80
2023-01-15T08:12:57.234Z,0.70
2023-01-15T08:15:25.136Z,0.65
2023-01-15T08:17:52.703Z,0.50
2023-01-15T08:20:22.763Z,0.60
2023-01-15T08:22:49.751Z,0.95
2023-01-15T08:25:20.977Z,0.80
2023-01-15T08:27:48.441Z,0.85
2023-01-15T08:30:23.119Z,0.50
2023-01-15T08:32:50.722Z,0.80
2023-01-15T08:35:18.073Z,0.50
2023-01-15T08:37:45.417Z,0.57
2023-01-15T08:40:13.017Z,0.57
2023-01-15T08:42:40.969Z,0.45
2023-01-15T08:45:08.827Z,0.60
2023-01-15T08:47:37.213Z,0.73
2023-01-15T08:50:06.442Z,0.50
2023-01-15T08:52:33.842Z,0.60
2023-01-15T08:55:01.151Z,0.75
2023-01-15T08:57:28.386Z,0.55
2023-01-15T08:59:55.725Z,0.73
2023-01-15T09:02:23.064Z,0.60
2023-01-15T09:04:52.396Z,0.63
2023-01-15T09:07:19.762Z,0.50
2023-01-15T09:09:47.104Z,0.73
2023-01-15T09:12:14.751Z,0.60
2023-01-15T09:14:57.441Z,0.60
2023-01-15T09:17:29.715Z,1.05
2023-01-15T09:19:57.183Z,0.90
2023-01-15T09:22:25.395Z,0.50
2023-01-15T09:24:52.762Z,0.68
2023-01-15T09:27:20.095Z,0.70
2023-01-15T09:29:47.683Z,0.73
2023-01-15T09:32:14.956Z,0.60
2023-01-15T09:34:42.432Z,0.40
2023-01-15T09:37:10.149Z,0.75
2023-01-15T09:39:40.689Z,0.82
2023-01-15T09:42:27.600Z,0.60
2023-01-15T09:45:27.003Z,0.50
2023-01-15T09:48:24.487Z,0.73
2023-01-15T09:51:16.207Z,0.50
2023-01-15T09:53:43.511Z,0.70
2023-01-15T09:56:26.050Z,0.55
2023-01-15T09:58:53.779Z,0.60
2023-01-15T10:01:26.727Z,0.60
2023-01-15T10:04:15.708Z,0.52
2023-01-15T10:06:48.798Z,0.60
2023-01-15T10:09:25.078Z,0.77
2023-01-15T10:12:35.336Z,0.60
2023-01-15T10:15:09.211Z,0.60
2023-01-15T10:17:42.361Z,0.55
2023-01-15T10:20:42.879Z,0.60
2023-01-15T10:26:02.065Z,0.60
2023-01-15T10:28:45.418Z,0.93
2023-01-15T10:31:22.220Z,0.63
2023-01-15T10:34:24.924Z,0.65
2023-01-15T10:37:12.558Z,0.65
2023-01-15T10:40:01.054Z,1.05
2023-01-15T10:42:53.349Z,0.60
2023-01-15T10:45:24.512Z,0.93
2023-01-15T10:48:01.137Z,0.90
2023-01-15T10:50:28.847Z,0.73
2023-01-15T10:53:09.108Z,0.77
2023-01-15T10:55:41.642Z,0.50
2023-01-15T10:58:25.127Z,0.65
2023-01-15T11:01:03.248Z,0.47
2023-01-15T11:03:39.295Z,0.93
2023-01-15T11:06:13.755Z,0.93
2023-01-15T11:12:01.735Z,0.50
2023-01-15T11:14:55.612Z,0.70
2023-01-15T11:17:59.823Z,0.68
2023-01-15T11:20:47.550Z,0.60
2023-01-15T11:23:17.889Z,0.57
2023-01-15T11:28:52.845Z,0.70
2023-01-15T11:31:20.845Z,0.70
2023-01-15T11:34:01.216Z,0.60
2023-01-15T11:38:56.447Z,0.50
2023-01-15T11:41:23.894Z,0.52
2023-01-15T11:44:16.907Z,0.30
2023-01-15T11:47:05.190Z,0.50
2023-01-15T11:49:51.146Z,0.60
2023-01-15T11:52:22.513Z,0.77
2023-01-15T11:54:53.072Z,0.40
2023-01-15T11:57:30.351Z,0.50
2023-01-15T12:00:00.436Z,0.47
2023-01-15T12:02:43.817Z,0.30
2023-01-15T12:05:24.275Z,0.40
2023-01-15T12:07:54.160Z,0.40
2023-01-15T12:10:47.902Z,0.70
2023-01-15T12:13:35.942Z,0.70
2023-01-15T12:16:30.503Z,0.90
2023-01-15T12:19:19.102Z,0.50
2023-01-15T12:22:03.682Z,0.85
2023-01-15T12:24:55.166Z,0.85
2023-01-15T12:27:55.813Z,0.40
2023-01-15T12:30:47.083Z,0.50
2023-01-15T12:33:23.097Z,0.52
2023-01-15T12:36:00.604Z,0.57
2023-01-15T12:38:41.292Z,0.55
2023-01-15T12:41:14.882Z,0.45
2023-01-15T12:44:05.672Z,0.63
2023-01-15T12:46:34.662Z,0.52
2023-01-15T12:49:19.399Z,0.40
2023-01-15T12:51:54.200Z,0.40
2023-01-15T12:54:32.078Z,0.60
2023-01-15T12:57:08.828Z,0.60
2023-01-15T12:59:36.155Z,0.38
2023-01-15T13:02:19.886Z,0.43
2023-01-15T13:04:47.366Z,0.57
2023-01-15T13:07:34.856Z,0.57
2023-01-15T13:10:18.778Z,0.60
2023-01-15T13:12:46.078Z,1.52
2023-01-15T13:15:15.158Z,0.63
2023-01-15T13:18:04.964Z,0.82
2023-01-15T13:20:42.031Z,1.15
2023-01-15T13:23:09.538Z,0.50
2023-01-15T13:26:08.660Z,0.85
2023-01-15T13:28:36.134Z,0.77
2023-01-15T13:31:12.071Z,0.77
2023-01-15T13:33:52.696Z,0.95
2023-01-15T13:36:29.884Z,0.80
2023-01-15T13:39:01.791Z,0.93
2023-01-15T13:41:49.801Z,0.60
2023-01-15T13:44:23.076Z,0.70
2023-01-15T13:47:00.647Z,0.63
2023-01-15T13:49:49.679Z,0.88
2023-01-15T13:56:16.889Z,1.30
2023-01-15T13:58:55.530Z,0.80
2023-01-15T14:01:44.145Z,0.82
2023-01-15T14:04:15.801Z,0.90
2023-01-15T14:06:52.207Z,1.00
2023-01-15T14:09:24.175Z,0.90
2023-01-15T14:12:05.417Z,1.00
2023-01-15T14:15:08.319Z,0.70
2023-01-15T14:18:13.354Z,0.85
2023-01-15T14:21:25.417Z,0.77
2023-01-15T14:24:17.045Z,2.38
2023-01-15T14:27:04.348Z,0.80
2023-01-15T14:29:37.988Z,0.95
2023-01-15T14:32:17.127Z,1.15
2023-01-15T14:34:46.924Z,1.60
2023-01-15T14:37:41.576Z,1.33
2023-01-15T14:40:32.518Z,1.00
2023-01-15T14:43:15.955Z,1.42
2023-01-15T14:45:46.604Z,1.13
2023-01-15T14:48:32.622Z,1.58
2023-01-15T14:51:14.867Z,0.98
2023-01-15T14:54:18.815Z,0.75
2023-01-15T14:56:55.144Z,0.90
2023-01-15T14:59:51.031Z,0.98
2023-01-15T15:02:28.105Z,0.95
2023-01-15T15:05:01.610Z,0.65
2023-01-15T15:07:36.690Z,1.00
2023-01-15T15:10:12.675Z,0.85
2023-01-15T15:13:05.870Z,0.95
2023-01-15T15:15:52.496Z,1.50
2023-01-15T15:18:40.145Z,0.75
2023-01-15T15:21:28.663Z,1.52
2023-01-15T15:24:05.690Z,1.05
2023-01-15T15:26:49.324Z,1.50
2023-01-15T15:29:23.313Z,1.42
2023-01-15T15:32:06.981Z,0.93
2023-01-15T15:35:03.024Z,0.90
2023-01-15T15:37:31.063Z,1.20
2023-01-15T15:40:16.422Z,1.00
2023-01-15T15:43:28.737Z,1.10
2023-01-15T15:46:47.231Z,0.82
2023-01-15T15:50:00.421Z,0.90
2023-01-15T16:05:32.689Z,0.93
2023-01-15T16:08:16.997Z,0.88
2023-01-15T16:10:51.776Z,1.10
2023-01-15T16:13:30.214Z,0.82
2023-01-15T16:16:24.414Z,1.33
2023-01-15T16:19:02.238Z,1.02
2023-01-15T16:21:37.785Z,0.98
2023-01-15T16:24:12.027Z,1.08
2023-01-15T16:26:50.220Z,1.38
2023-01-15T16:29:24.392Z,0.85
2023-01-15T16:32:01.928Z,0.75
2023-01-15T16:34:41.472Z,0.95
2023-01-15T16:37:32.090Z,1.20
2023-01-15T16:40:07.222Z,1.45
2023-01-15T16:42:46.124Z,0.90
2023-01-15T16:45:28.663Z,1.00
2023-01-15T16:48:08.647Z,1.00
2023-01-15T16:50:42.566Z,0.80
2023-01-15T16:53:30.229Z,1.00
2023-01-15T16:55:59.583Z,0.93
2023-01-15T16:58:38.477Z,0.82
2023-01-15T17:01:33.712Z,1.17
2023-01-15T17:04:02.534Z,0.93
2023-01-15T17:06:30.075Z,1.00
2023-01-15T17:09:45.481Z,1.00
2023-01-15T17:15:18.626Z,1.00
2023-01-15T17:17:47.333Z,1.05
2023-01-15T17:20:15.043Z,0.50
2023-01-15T17:22:47.257Z,1.13
2023-01-15T17:25:31.303Z,0.75
2023-01-15T17:28:00.056Z,0.80
2023-01-15T17:30:36.742Z,1.00
2023-01-15T17:33:06.126Z,1.23
2023-01-15T17:35:36.130Z,0.80
2023-01-15T17:38:04.019Z,1.02
2023-01-15T17:40:32.914Z,1.17
2023-01-15T17:43:00.314Z,1.20
2023-01-15T17:45:29.834Z,1.30
2023-01-15T17:47:57.541Z,0.97
2023-01-15T17:50:25.369Z,0.90
2023-01-15T17:52:52.990Z,0.90
2023-01-15T17:55:42.648Z,0.70
2023-01-15T17:58:31.723Z,1.00
2023-01-15T18:01:17.799Z,0.93
2023-01-15T18:04:10.840Z,1.35
2023-01-15T18:06:38.319Z,0.80
2023-01-15T18:09:07.716Z,0.80
2023-01-15T18:11:35.807Z,1.10
2023-01-15T18:14:03.178Z,1.10
2023-01-15T18:16:30.222Z,0.90
2023-01-15T18:18:57.175Z,0.90
2023-01-15T18:21:24.466Z,0.80
2023-01-15T18:23:51.768Z,0.65
2023-01-15T18:26:18.655Z,1.08
2023-01-15T18:28:47.040Z,0.80
2023-01-15T18:31:14.691Z,0.88
2023-01-15T18:33:42.021Z,0.80
2023-01-15T18:36:11.698Z,1.13
2023-01-15T18:38:40.782Z,0.73
2023-01-15T18:41:34.437Z,0.80
2023-01-15T18:44:24.429Z,1.15
2023-01-15T18:46:55.060Z,0.82
2023-01-15T18:49:22.382Z,1.17
2023-01-15T18:52:09.286Z,1.95
2023-01-15T18:54:36.905Z,1.15
2023-01-15T18:57:04.384Z,1.00
2023-01-15T18:59:31.958Z,1.27
2023-01-15T19:01:59.455Z,1.77
2023-01-15T19:04:27.226Z,1.15
2023-01-15T19:06:54.543Z,1.20
2023-01-15T19:09:24.226Z,1.00
2023-01-15T19:11:52.461Z,0.98
2023-01-15T19:14:38.776Z,1.13
2023-01-15T19:17:24.728Z,0.93
2023-01-15T19:19:51.622Z,0.88
2023-01-15T19:22:37.065Z,0.93
2023-01-15T19:25:04.971Z,1.38
2023-01-15T19:27:32.288Z,1.17
2023-01-15T19:30:00.427Z,1.60
2023-01-15T19:32:27.704Z,1.35
2023-01-15T19:34:55.055Z,1.13
2023-01-15T19:37:22.469Z,1.05
2023-01-15T19:39:49.760Z,1.00
2023-01-15T19:42:35.789Z,0.85
2023-01-15T19:45:21.837Z,1.42
2023-01-15T19:48:08.321Z,1.35
2023-01-15T19:50:38.541Z,1.10
2023-01-15T19:53:06.280Z,0.80
2023-01-15T19:55:34.229Z,1.00
2023-01-15T19:58:04.481Z,1.15
2023-01-15T20:00:32.466Z,1.10
2023-01-15T20:03:00.165Z,0.90
2023-01-15T20:05:30.120Z,2.80
2023-01-15T20:07:58.370Z,1.05
2023-01-15T20:10:27.494Z,0.75
2023-01-15T20:13:13.813Z,1.40
2023-01-15T20:15:43.862Z,0.80
2023-01-15T20:18:11.257Z,0.80
2023-01-15T20:20:39.195Z,0.90
2023-01-15T20:23:06.486Z,0.98
2023-01-15T20:25:33.966Z,0.95
2023-01-15T20:28:01.344Z,1.00
2023-01-15T20:30:28.969Z,0.63
2023-01-15T20:33:00.331Z,0.70
2023-01-15T20:35:31.532Z,0.90
2023-01-15T20:37:59.282Z,0.95
2023-01-15T20:40:27.033Z,0.82
2023-01-15T20:43:15.367Z,1.00
2023-01-15T20:45:42.709Z,0.95
2023-01-15T20:48:12.789Z,0.85
2023-01-15T20:51:00.964Z,1.15
2023-01-15T20:53:29.723Z,0.88
2023-01-15T20:55:57.823Z,1.33
2023-01-15T20:58:25.293Z,1.27
2023-01-15T21:00:53.511Z,0.77
2023-01-15T21:03:20.878Z,0.93
2023-01-15T21:05:48.476Z,0.93
2023-01-15T21:08:15.841Z,1.17
2023-01-15T21:10:42.773Z,1.50
2023-01-15T21:13:09.711Z,1.38
2023-01-15T21:15:37.197Z,1.10
2023-01-15T21:18:04.276Z,0.75
2023-01-15T21:20:31.646Z,1.42
2023-01-15T21:22:59.071Z,0.95
2023-01-15T21:25:26.105Z,0.88
2023-01-15T21:27:53.059Z,1.00
2023-01-15T21:30:21.050Z,0.82
2023-01-15T21:32:49.064Z,0.98
2023-01-15T21:35:16.499Z,0.93
2023-01-15T21:37:43.359Z,0.80
2023-01-15T21:40:11.009Z,1.05
2023-01-15T21:42:56.972Z,1.00
2023-01-15T21:45:24.458Z,0.90
2023-01-15T21:47:51.845Z,1.02
2023-01-15T21:50:20.488Z,1.20
2023-01-15T21:52:52.320Z,1.02
2023-01-15T21:55:19.741Z,0.70
2023-01-15T21:57:49.203Z,1.13
2023-01-15T22:00:17.871Z,0.88
2023-01-15T22:02:44.787Z,1.17
2023-01-15T22:05:12.146Z,1.20
2023-01-15T22:07:39.453Z,0.88
2023-01-15T22:10:06.807Z,0.93
2023-01-15T22:12:38.260Z,1.20
2023-01-15T22:15:05.661Z,1.00
2023-01-15T22:17:32.511Z,1.08
2023-01-15T22:19:59.773Z,0.90
2023-01-15T22:22:32.822Z,0.80
2023-01-15T22:25:00.129Z,0.70
2023-01-15T22:27:28.138Z,1.08
2023-01-15T22:29:55.216Z,1.23
2023-01-15T22:32:22.516Z,1.08
2023-01-15T22:34:49.833Z,2.00
2023-01-15T22:37:17.243Z,1.02
2023-01-15T22:39:44.099Z,1.38
2023-01-15T22:42:32.961Z,0.70
2023-01-15T22:45:00.698Z,1.00
2023-01-15T22:47:29.169Z,1.00
2023-01-15T22:49:56.506Z,0.82
2023-01-15T22:52:25.781Z,0.95
2023-01-15T22:54:53.205Z,1.07
2023-01-15T22:57:20.584Z,1.10
2023-01-15T22:59:47.914Z,0.60
2023-01-15T23:02:15.322Z,0.82
2023-01-15T23:04:42.965Z,1.17
2023-01-15T23:07:10.609Z,0.88
2023-01-15T23:09:37.610Z,1.38
2023-01-15T23:12:04.750Z,0.82
2023-01-15T23:14:32.162Z,1.20
2023-01-15T23:16:59.443Z,1.30
2023-01-15T23:19:28.302Z,1.00
2023-01-15T23:21:55.707Z,0.75
2023-01-15T23:24:23.209Z,1.17
2023-01-15T23:26:50.546Z,1.05
2023-01-15T23:29:17.855Z,1.00
2023-01-15T23:31:45.161Z,0.95
2023-01-15T23:34:13.635Z,1.40
2023-01-15T23:36:41.017Z,1.23
2023-01-15T23:39:08.145Z,0.70
2023-01-15T23:41:53.922Z,1.30
2023-01-15T23:44:39.852Z,1.25
2023-01-15T23:47:07.938Z,0.93
2023-01-15T23:49:35.266Z,1.80
2023-01-15T23:52:02.518Z,0.80
2023-01-15T23:54:31.514Z,1.67
2023-01-15T23:57:00.289Z,1.15
2023-01-15T23:59:28.369Z,1.20
